sensor_id;sensor_type;location;lat;lon;timestamp;pressure;altitude;pressure_sealevel;temperature;humidity
6859;BME280;3468;42.824;23.240;2023-06-14T07:09:49;69679.94;;;22.36;100.00
6859;BME280;3468;42.824;23.240;2023-06-14T07:12:16;69732.41;;;22.74;100.00
6859;BME280;3468;42.824;23.240;2023-06-14T07:14:42;69763.72;;;22.96;100.00
6859;BME280;3468;42.824;23.240;2023-06-14T07:17:09;69751.91;;;22.92;100.00
6859;BME280;3468;42.824;23.240;2023-06-14T07:19:36;69795.06;;;22.79;100.00
6859;BME280;3468;42.824;23.240;2023-06-14T07:22:03;69769.81;;;22.99;100.00
6859;BME280;3468;42.824;23.240;2023-06-14T07:24:30;69819.44;;;23.59;100.00
6859;BME280;3468;42.824;23.240;2023-06-14T07:26:58;69847.06;;;23.80;100.00
6859;BME280;3468;42.824;23.240;2023-06-14T07:29:24;69875.91;;;23.87;100.00
6859;BME280;3468;42.824;23.240;2023-06-14T07:31:52;69858.22;;;23.98;100.00
6859;BME280;3468;42.824;23.240;2023-06-14T07:34:19;69900.59;;;24.06;100.00
6859;BME280;3468;42.824;23.240;2023-06-14T07:36:45;69909.38;;;23.93;100.00
6859;BME280;3468;42.824;23.240;2023-06-14T07:39:12;69828.47;;;23.44;100.00
6859;BME280;3468;42.824;23.240;2023-06-14T07:41:39;69816.16;;;23.25;100.00
6859;BME280;3468;42.824;23.240;2023-06-14T07:44:07;69736.00;;;23.05;100.00
6859;BME280;3468;42.824;23.240;2023-06-14T07:46:35;69790.81;;;23.01;100.00
6859;BME280;3468;42.824;23.240;2023-06-14T07:49:03;69766.75;;;22.87;100.00
6859;BME280;3468;42.824;23.240;2023-06-14T07:51:30;69574.13;;;21.76;100.00
6859;BME280;3468;42.824;23.240;2023-06-14T07:53:59;69721.06;;;22.42;100.00
6859;BME280;3468;42.824;23.240;2023-06-14T07:56:26;69742.44;;;22.51;100.00
6859;BME280;3468;42.824;23.240;2023-06-14T07:58:52;69738.66;;;22.70;100.00
6859;BME280;3468;42.824;23.240;2023-06-14T08:01:20;69737.47;;;22.89;99.82
6859;BME280;3468;42.824;23.240;2023-06-14T08:03:50;69783.28;;;23.19;100.00
6859;BME280;3468;42.824;23.240;2023-06-14T08:06:17;69817.75;;;23.37;100.00
6859;BME280;3468;42.824;23.240;2023-06-14T08:08:44;69875.75;;;23.73;99.51
6859;BME280;3468;42.824;23.240;2023-06-14T08:11:11;69895.78;;;24.12;100.00
6859;BME280;3468;42.824;23.240;2023-06-14T08:13:37;69933.25;;;24.62;100.00
6859;BME280;3468;42.824;23.240;2023-06-14T08:16:04;69957.19;;;24.62;93.87
6859;BME280;3468;42.824;23.240;2023-06-14T08:18:32;69942.63;;;24.50;92.13
6859;BME280;3468;42.824;23.240;2023-06-14T08:20:59;69950.69;;;24.72;94.12
6859;BME280;3468;42.824;23.240;2023-06-14T08:23:26;69982.66;;;24.95;97.95
6859;BME280;3468;42.824;23.240;2023-06-14T08:25:52;70024.84;;;25.29;91.21
6859;BME280;3468;42.824;23.240;2023-06-14T08:28:20;70028.91;;;25.32;94.21
6859;BME280;3468;42.824;23.240;2023-06-14T08:30:47;70064.41;;;25.34;95.63
6859;BME280;3468;42.824;23.240;2023-06-14T08:33:14;70087.94;;;25.71;88.83
6859;BME280;3468;42.824;23.240;2023-06-14T08:35:42;70143.22;;;26.14;88.71
6859;BME280;3468;42.824;23.240;2023-06-14T08:38:10;70120.38;;;26.10;87.65
6859;BME280;3468;42.824;23.240;2023-06-14T08:40:37;70112.00;;;26.09;91.50
6859;BME280;3468;42.824;23.240;2023-06-14T08:43:04;70134.91;;;26.17;87.99
6859;BME280;3468;42.824;23.240;2023-06-14T08:45:32;70188.66;;;26.43;83.89
6859;BME280;3468;42.824;23.240;2023-06-14T08:47:59;70096.66;;;26.07;75.71
6859;BME280;3468;42.824;23.240;2023-06-14T08:50:27;70075.78;;;25.70;76.28
6859;BME280;3468;42.824;23.240;2023-06-14T08:52:57;70100.91;;;25.71;75.95
6859;BME280;3468;42.824;23.240;2023-06-14T08:55:26;70093.50;;;25.54;75.80
6859;BME280;3468;42.824;23.240;2023-06-14T08:57:55;70025.13;;;25.31;74.86
6859;BME280;3468;42.824;23.240;2023-06-14T09:00:23;70046.41;;;25.51;76.23
6859;BME280;3468;42.824;23.240;2023-06-14T09:02:50;70090.78;;;25.69;77.70
6859;BME280;3468;42.824;23.240;2023-06-14T09:05:22;70177.69;;;26.47;75.01
6859;BME280;3468;42.824;23.240;2023-06-14T09:07:49;70227.69;;;26.72;71.61
6859;BME280;3468;42.824;23.240;2023-06-14T09:10:17;70245.81;;;26.92;69.59
6859;BME280;3468;42.824;23.240;2023-06-14T09:12:44;70276.03;;;27.04;66.65
6859;BME280;3468;42.824;23.240;2023-06-14T09:15:11;70318.06;;;27.40;69.53
6859;BME280;3468;42.824;23.240;2023-06-14T09:17:39;70323.50;;;27.62;66.99
6859;BME280;3468;42.824;23.240;2023-06-14T09:20:07;70388.34;;;27.92;65.67
6859;BME280;3468;42.824;23.240;2023-06-14T09:22:37;70422.66;;;28.04;65.18
6859;BME280;3468;42.824;23.240;2023-06-14T09:25:05;70410.31;;;28.13;62.94
6859;BME280;3468;42.824;23.240;2023-06-14T09:27:33;70481.25;;;28.38;60.92
6859;BME280;3468;42.824;23.240;2023-06-14T09:30:01;70501.50;;;28.90;61.30
6859;BME280;3468;42.824;23.240;2023-06-14T09:32:28;70594.72;;;29.29;57.94
6859;BME280;3468;42.824;23.240;2023-06-14T09:34:56;70542.16;;;28.98;55.45
6859;BME280;3468;42.824;23.240;2023-06-14T09:37:30;70559.81;;;29.22;59.67
6859;BME280;3468;42.824;23.240;2023-06-14T09:39:57;70544.13;;;29.22;55.65
6859;BME280;3468;42.824;23.240;2023-06-14T09:42:24;70610.88;;;29.50;59.56
6859;BME280;3468;42.824;23.240;2023-06-14T09:44:55;70597.94;;;29.67;57.72
6859;BME280;3468;42.824;23.240;2023-06-14T09:47:23;70581.63;;;29.58;54.27
6859;BME280;3468;42.824;23.240;2023-06-14T09:49:50;70486.16;;;28.97;55.17
6859;BME280;3468;42.824;23.240;2023-06-14T09:52:20;70506.38;;;28.83;53.12
6859;BME280;3468;42.824;23.240;2023-06-14T09:54:48;70420.59;;;28.62;53.77
6859;BME280;3468;42.824;23.240;2023-06-14T09:57:16;70535.09;;;28.88;58.63
6859;BME280;3468;42.824;23.240;2023-06-14T09:59:45;70470.41;;;28.88;56.21
6859;BME280;3468;42.824;23.240;2023-06-14T10:02:22;70575.34;;;29.37;51.02
6859;BME280;3468;42.824;23.240;2023-06-14T10:04:56;70544.91;;;28.78;52.97
6859;BME280;3468;42.824;23.240;2023-06-14T10:07:26;70475.56;;;28.51;52.71
6859;BME280;3468;42.824;23.240;2023-06-14T10:09:57;70353.66;;;27.98;54.94
6859;BME280;3468;42.824;23.240;2023-06-14T10:12:24;70375.59;;;27.90;56.19
6859;BME280;3468;42.824;23.240;2023-06-14T10:14:52;70364.81;;;27.84;56.64
6859;BME280;3468;42.824;23.240;2023-06-14T10:17:25;70405.09;;;28.13;56.04
6859;BME280;3468;42.824;23.240;2023-06-14T10:20:06;70423.81;;;28.33;57.28
6859;BME280;3468;42.824;23.240;2023-06-14T10:22:40;70490.25;;;28.68;58.29
6859;BME280;3468;42.824;23.240;2023-06-14T10:25:12;70536.53;;;29.15;53.66
6859;BME280;3468;42.824;23.240;2023-06-14T10:27:44;70583.22;;;29.42;54.52
6859;BME280;3468;42.824;23.240;2023-06-14T10:30:14;70616.72;;;29.88;55.61
6859;BME280;3468;42.824;23.240;2023-06-14T10:33:06;70689.72;;;30.27;56.03
6859;BME280;3468;42.824;23.240;2023-06-14T10:35:33;70698.28;;;30.08;49.51
6859;BME280;3468;42.824;23.240;2023-06-14T10:38:07;70699.41;;;30.04;51.10
6859;BME280;3468;42.824;23.240;2023-06-14T10:40:34;70745.06;;;30.39;54.04
6859;BME280;3468;42.824;23.240;2023-06-14T10:43:20;70603.53;;;29.74;49.60
6859;BME280;3468;42.824;23.240;2023-06-14T10:46:15;70607.44;;;29.89;52.46
6859;BME280;3468;42.824;23.240;2023-06-14T10:48:44;70604.28;;;29.59;50.42
6859;BME280;3468;42.824;23.240;2023-06-14T10:51:20;70552.06;;;29.31;53.60
6859;BME280;3468;42.824;23.240;2023-06-14T10:53:48;70550.00;;;29.27;52.14
6859;BME280;3468;42.824;23.240;2023-06-14T10:56:27;70558.31;;;29.18;55.25
6859;BME280;3468;42.824;23.240;2023-06-14T10:58:54;70559.34;;;29.35;54.08
6859;BME280;3468;42.824;23.240;2023-06-14T11:01:35;70609.03;;;29.72;52.61
6859;BME280;3468;42.824;23.240;2023-06-14T11:04:11;70615.44;;;29.73;51.03
6859;BME280;3468;42.824;23.240;2023-06-14T11:06:47;70597.88;;;29.58;50.36
6859;BME280;3468;42.824;23.240;2023-06-14T11:09:41;70632.34;;;29.79;51.33
6859;BME280;3468;42.824;23.240;2023-06-14T11:12:12;70593.56;;;29.66;50.94
6859;BME280;3468;42.824;23.240;2023-06-14T11:14:39;70525.75;;;29.13;51.51
6859;BME280;3468;42.824;23.240;2023-06-14T11:17:06;70485.28;;;28.94;53.34
6859;BME280;3468;42.824;23.240;2023-06-14T11:19:34;70455.22;;;28.75;55.40
6859;BME280;3468;42.824;23.240;2023-06-14T11:22:01;70415.91;;;28.58;57.11
6859;BME280;3468;42.824;23.240;2023-06-14T11:24:28;70482.78;;;28.74;56.98
6859;BME280;3468;42.824;23.240;2023-06-14T11:26:55;70564.91;;;29.42;54.80
6859;BME280;3468;42.824;23.240;2023-06-14T11:29:23;70591.56;;;29.66;53.59
6859;BME280;3468;42.824;23.240;2023-06-14T11:31:50;70520.25;;;29.15;53.98
6859;BME280;3468;42.824;23.240;2023-06-14T11:34:17;70433.53;;;28.48;56.78
6859;BME280;3468;42.824;23.240;2023-06-14T11:36:46;70398.88;;;28.30;56.55
6859;BME280;3468;42.824;23.240;2023-06-14T11:39:13;70261.53;;;27.62;58.25
6859;BME280;3468;42.824;23.240;2023-06-14T11:41:42;70363.59;;;28.07;55.21
6859;BME280;3468;42.824;23.240;2023-06-14T11:44:09;70356.09;;;28.09;57.26
6859;BME280;3468;42.824;23.240;2023-06-14T11:46:37;70280.44;;;27.72;57.92
6859;BME280;3468;42.824;23.240;2023-06-14T11:49:04;70329.97;;;27.76;56.60
6859;BME280;3468;42.824;23.240;2023-06-14T11:51:32;70338.97;;;27.77;58.30
6859;BME280;3468;42.824;23.240;2023-06-14T11:54:01;70307.34;;;27.70;54.79
6859;BME280;3468;42.824;23.240;2023-06-14T11:56:29;70422.56;;;28.24;52.22
6859;BME280;3468;42.824;23.240;2023-06-14T11:58:56;70413.38;;;28.33;55.45
6859;BME280;3468;42.824;23.240;2023-06-14T12:01:23;70340.59;;;27.98;52.20
6859;BME280;3468;42.824;23.240;2023-06-14T12:03:53;70349.16;;;28.12;53.27
6859;BME280;3468;42.824;23.240;2023-06-14T12:06:26;70414.22;;;28.28;55.07
6859;BME280;3468;42.824;23.240;2023-06-14T12:08:56;70400.00;;;28.60;52.96
6859;BME280;3468;42.824;23.240;2023-06-14T12:11:31;70475.97;;;28.91;54.47
6859;BME280;3468;42.824;23.240;2023-06-14T12:13:58;70566.34;;;29.41;52.81
6859;BME280;3468;42.824;23.240;2023-06-14T12:16:30;70485.91;;;28.99;52.33
6859;BME280;3468;42.824;23.240;2023-06-14T12:19:00;70373.69;;;28.33;50.61
6859;BME280;3468;42.824;23.240;2023-06-14T12:21:27;70355.72;;;28.02;51.58
6859;BME280;3468;42.824;23.240;2023-06-14T12:23:54;70351.53;;;28.19;51.25
6859;BME280;3468;42.824;23.240;2023-06-14T12:26:21;70459.47;;;28.64;52.43
6859;BME280;3468;42.824;23.240;2023-06-14T12:28:49;70538.66;;;29.24;49.95
6859;BME280;3468;42.824;23.240;2023-06-14T12:31:16;70579.25;;;29.52;47.06
6859;BME280;3468;42.824;23.240;2023-06-14T12:33:44;70576.75;;;29.32;46.05
6859;BME280;3468;42.824;23.240;2023-06-14T12:36:14;70562.13;;;29.57;48.08
6859;BME280;3468;42.824;23.240;2023-06-14T12:38:41;70621.72;;;29.94;46.39
6859;BME280;3468;42.824;23.240;2023-06-14T12:41:08;70661.91;;;30.39;47.71
6859;BME280;3468;42.824;23.240;2023-06-14T12:43:35;70662.25;;;30.13;52.83
6859;BME280;3468;42.824;23.240;2023-06-14T12:46:03;70634.59;;;30.05;46.84
6859;BME280;3468;42.824;23.240;2023-06-14T12:48:31;70594.53;;;29.73;45.28
6859;BME280;3468;42.824;23.240;2023-06-14T12:50:59;70594.19;;;29.66;46.81
6859;BME280;3468;42.824;23.240;2023-06-14T12:53:26;70545.66;;;29.30;49.08
6859;BME280;3468;42.824;23.240;2023-06-14T12:55:53;70504.59;;;29.15;48.39
6859;BME280;3468;42.824;23.240;2023-06-14T12:58:20;70486.00;;;29.13;49.17
6859;BME280;3468;42.824;23.240;2023-06-14T13:00:47;70472.59;;;29.06;50.82
6859;BME280;3468;42.824;23.240;2023-06-14T13:03:15;70403.63;;;28.43;51.33
6859;BME280;3468;42.824;23.240;2023-06-14T13:05:42;70363.47;;;28.27;49.96
6859;BME280;3468;42.824;23.240;2023-06-14T13:08:09;70358.72;;;28.14;49.68
6859;BME280;3468;42.824;23.240;2023-06-14T13:10:36;70409.47;;;28.48;49.23
6859;BME280;3468;42.824;23.240;2023-06-14T13:13:02;70399.09;;;28.24;49.98
6859;BME280;3468;42.824;23.240;2023-06-14T13:15:29;70316.22;;;27.91;52.55
6859;BME280;3468;42.824;23.240;2023-06-14T13:17:56;70237.84;;;27.36;54.68
6859;BME280;3468;42.824;23.240;2023-06-14T13:20:24;70292.56;;;27.40;53.07
6859;BME280;3468;42.824;23.240;2023-06-14T13:22:51;70216.75;;;27.09;55.70
6859;BME280;3468;42.824;23.240;2023-06-14T13:25:18;70167.50;;;26.69;56.11
6859;BME280;3468;42.824;23.240;2023-06-14T13:27:44;70116.91;;;26.35;58.63
6859;BME280;3468;42.824;23.240;2023-06-14T13:30:12;70058.78;;;25.99;57.00
6859;BME280;3468;42.824;23.240;2023-06-14T13:32:39;70057.19;;;25.87;59.65
6859;BME280;3468;42.824;23.240;2023-06-14T13:35:06;69988.81;;;25.60;61.32
6859;BME280;3468;42.824;23.240;2023-06-14T13:37:34;70022.16;;;25.48;59.60
6859;BME280;3468;42.824;23.240;2023-06-14T13:40:01;69984.03;;;25.42;63.57
6859;BME280;3468;42.824;23.240;2023-06-14T13:42:28;69964.72;;;25.17;66.55
6859;BME280;3468;42.824;23.240;2023-06-14T13:44:56;69940.13;;;25.07;69.53
6859;BME280;3468;42.824;23.240;2023-06-14T13:47:23;69978.16;;;25.04;69.94
6859;BME280;3468;42.824;23.240;2023-06-14T13:49:50;69930.78;;;24.95;70.15
6859;BME280;3468;42.824;23.240;2023-06-14T13:52:17;69952.50;;;25.07;72.17
6859;BME280;3468;42.824;23.240;2023-06-14T13:54:45;69943.59;;;25.10;76.52
6859;BME280;3468;42.824;23.240;2023-06-14T13:57:11;69947.13;;;25.18;74.44
6859;BME280;3468;42.824;23.240;2023-06-14T13:59:38;69995.22;;;25.36;74.51
6859;BME280;3468;42.824;23.240;2023-06-14T14:02:06;69959.44;;;25.08;73.59
6859;BME280;3468;42.824;23.240;2023-06-14T14:04:33;69871.59;;;24.34;85.19
6859;BME280;3468;42.824;23.240;2023-06-14T14:07:00;69776.84;;;23.77;91.74
6859;BME280;3468;42.824;23.240;2023-06-14T14:09:26;69698.94;;;23.07;94.56
6859;BME280;3468;42.824;23.240;2023-06-14T14:11:55;69644.44;;;22.45;100.00
6859;BME280;3468;42.824;23.240;2023-06-14T14:14:22;69591.78;;;21.89;99.22
6859;BME280;3468;42.824;23.240;2023-06-14T14:16:49;69554.25;;;21.70;100.00
6859;BME280;3468;42.824;23.240;2023-06-14T14:19:16;69461.53;;;21.15;100.00
6859;BME280;3468;42.824;23.240;2023-06-14T14:21:44;69433.72;;;20.72;100.00
6859;BME280;3468;42.824;23.240;2023-06-14T14:24:11;69435.13;;;20.51;100.00
6859;BME280;3468;42.824;23.240;2023-06-14T14:26:37;69408.34;;;20.39;100.00
6859;BME280;3468;42.824;23.240;2023-06-14T14:29:06;69398.56;;;20.35;100.00
6859;BME280;3468;42.824;23.240;2023-06-14T14:31:32;69416.06;;;20.39;100.00
6859;BME280;3468;42.824;23.240;2023-06-14T14:33:59;69409.25;;;20.42;100.00
6859;BME280;3468;42.824;23.240;2023-06-14T14:36:26;69420.81;;;20.52;100.00
6859;BME280;3468;42.824;23.240;2023-06-14T14:38:52;69399.84;;;20.65;100.00
6859;BME280;3468;42.824;23.240;2023-06-14T14:41:19;69443.91;;;20.83;100.00
6859;BME280;3468;42.824;23.240;2023-06-14T14:43:46;69483.28;;;21.16;100.00
6859;BME280;3468;42.824;23.240;2023-06-14T14:46:14;69577.03;;;21.59;100.00
6859;BME280;3468;42.824;23.240;2023-06-14T14:48:42;69595.63;;;21.99;100.00
6859;BME280;3468;42.824;23.240;2023-06-14T14:51:08;69627.00;;;22.26;100.00
6859;BME280;3468;42.824;23.240;2023-06-14T14:53:35;69690.41;;;22.69;100.00
6859;BME280;3468;42.824;23.240;2023-06-14T14:56:02;69678.50;;;22.81;100.00
6859;BME280;3468;42.824;23.240;2023-06-14T14:58:29;69657.22;;;22.56;97.04
6859;BME280;3468;42.824;23.240;2023-06-14T15:00:56;69605.22;;;22.09;100.00
6859;BME280;3468;42.824;23.240;2023-06-14T15:03:24;69583.75;;;21.91;100.00
6859;BME280;3468;42.824;23.240;2023-06-14T15:05:52;69591.06;;;21.80;100.00
6859;BME280;3468;42.824;23.240;2023-06-14T15:08:20;69588.13;;;21.53;100.00
6859;BME280;3468;42.824;23.240;2023-06-14T15:10:47;69528.09;;;21.24;100.00
6859;BME280;3468;42.824;23.240;2023-06-14T15:13:14;69451.75;;;20.92;100.00
6859;BME280;3468;42.824;23.240;2023-06-14T15:15:40;69497.34;;;20.78;100.00
6859;BME280;3468;42.824;23.240;2023-06-14T15:18:07;69483.63;;;20.79;100.00
6859;BME280;3468;42.824;23.240;2023-06-14T15:20:36;69434.25;;;20.68;100.00
6859;BME280;3468;42.824;23.240;2023-06-14T15:23:03;69434.16;;;20.64;100.00
6859;BME280;3468;42.824;23.240;2023-06-14T15:25:30;69423.28;;;20.63;100.00
6859;BME280;3468;42.824;23.240;2023-06-14T15:27:58;69427.25;;;20.62;100.00
6859;BME280;3468;42.824;23.240;2023-06-14T15:30:26;69443.88;;;20.63;100.00
6859;BME280;3468;42.824;23.240;2023-06-14T15:32:53;69398.63;;;20.60;100.00
6859;BME280;3468;42.824;23.240;2023-06-14T15:35:19;69436.91;;;20.57;100.00
6859;BME280;3468;42.824;23.240;2023-06-14T15:37:48;69458.56;;;20.49;100.00
6859;BME280;3468;42.824;23.240;2023-06-14T15:40:15;69423.06;;;20.50;100.00
6859;BME280;3468;42.824;23.240;2023-06-14T15:42:42;69463.44;;;20.51;100.00
6859;BME280;3468;42.824;23.240;2023-06-14T15:45:09;69432.84;;;20.54;100.00
6859;BME280;3468;42.824;23.240;2023-06-14T15:47:36;69446.72;;;20.61;100.00
6859;BME280;3468;42.824;23.240;2023-06-14T15:50:03;69452.97;;;20.58;100.00
6859;BME280;3468;42.824;23.240;2023-06-14T15:52:32;69439.91;;;20.64;100.00
6859;BME280;3468;42.824;23.240;2023-06-14T15:55:00;69457.84;;;20.60;100.00
6859;BME280;3468;42.824;23.240;2023-06-14T15:57:29;69437.25;;;20.60;100.00
6859;BME280;3468;42.824;23.240;2023-06-14T15:59:55;69485.09;;;20.63;100.00
6859;BME280;3468;42.824;23.240;2023-06-14T16:02:22;69449.25;;;20.76;100.00
6859;BME280;3468;42.824;23.240;2023-06-14T16:04:49;69465.72;;;20.88;100.00
6859;BME280;3468;42.824;23.240;2023-06-14T16:07:15;69459.34;;;21.03;100.00
6859;BME280;3468;42.824;23.240;2023-06-14T16:09:42;69480.97;;;21.14;100.00
6859;BME280;3468;42.824;23.240;2023-06-14T16:12:10;69498.28;;;21.25;100.00
6859;BME280;3468;42.824;23.240;2023-06-14T16:14:38;69533.06;;;21.30;100.00
6859;BME280;3468;42.824;23.240;2023-06-14T16:17:05;69572.44;;;21.59;100.00
6859;BME280;3468;42.824;23.240;2023-06-14T16:19:32;69583.34;;;21.80;100.00
6859;BME280;3468;42.824;23.240;2023-06-14T16:21:59;69613.47;;;21.81;100.00
6859;BME280;3468;42.824;23.240;2023-06-14T16:24:25;69600.34;;;21.88;100.00
6859;BME280;3468;42.824;23.240;2023-06-14T16:26:52;69603.34;;;21.95;100.00
6859;BME280;3468;42.824;23.240;2023-06-14T16:29:21;69566.94;;;21.97;100.00
6859;BME280;3468;42.824;23.240;2023-06-14T16:31:48;69594.16;;;21.96;100.00
6859;BME280;3468;42.824;23.240;2023-06-14T16:34:15;69564.75;;;21.84;100.00
6859;BME280;3468;42.824;23.240;2023-06-14T16:36:42;69583.47;;;21.69;100.00
6859;BME280;3468;42.824;23.240;2023-06-14T16:39:09;69558.53;;;21.48;100.00
6859;BME280;3468;42.824;23.240;2023-06-14T16:41:36;69520.78;;;21.35;100.00
6859;BME280;3468;42.824;23.240;2023-06-14T16:44:03;69532.34;;;21.21;100.00
6859;BME280;3468;42.824;23.240;2023-06-14T16:46:33;69488.00;;;21.05;100.00
6859;BME280;3468;42.824;23.240;2023-06-14T16:49:01;69458.56;;;20.89;100.00
6859;BME280;3468;42.824;23.240;2023-06-14T16:51:28;69464.81;;;20.85;100.00
6859;BME280;3468;42.824;23.240;2023-06-14T16:53:55;69469.84;;;20.76;100.00
6859;BME280;3468;42.824;23.240;2023-06-14T16:56:22;69438.56;;;20.70;100.00
6859;BME280;3468;42.824;23.240;2023-06-14T16:58:52;69444.31;;;20.55;100.00
6859;BME280;3468;42.824;23.240;2023-06-14T17:01:20;69440.19;;;20.47;100.00
6859;BME280;3468;42.824;23.240;2023-06-14T17:03:48;69407.69;;;20.34;100.00
6859;BME280;3468;42.824;23.240;2023-06-14T17:06:15;69408.41;;;20.24;100.00
6859;BME280;3468;42.824;23.240;2023-06-14T17:08:43;69395.78;;;20.22;100.00
6859;BME280;3468;42.824;23.240;2023-06-14T17:11:12;69359.81;;;20.07;100.00
6859;BME280;3468;42.824;23.240;2023-06-14T17:13:40;69409.22;;;20.03;100.00
6859;BME280;3468;42.824;23.240;2023-06-14T17:16:07;69356.28;;;19.99;100.00
6859;BME280;3468;42.824;23.240;2023-06-14T17:18:36;69378.34;;;20.03;100.00
6859;BME280;3468;42.824;23.240;2023-06-14T17:21:04;69392.63;;;20.02;100.00
6859;BME280;3468;42.824;23.240;2023-06-14T17:23:31;69465.94;;;19.92;100.00
6859;BME280;3468;42.824;23.240;2023-06-14T17:25:59;69301.06;;;19.79;100.00
6859;BME280;3468;42.824;23.240;2023-06-14T17:28:26;69342.09;;;19.70;100.00
6859;BME280;3468;42.824;23.240;2023-06-14T17:30:52;69336.88;;;19.65;100.00
6859;BME280;3468;42.824;23.240;2023-06-14T17:33:19;69343.28;;;19.55;100.00
6859;BME280;3468;42.824;23.240;2023-06-14T17:35:46;69304.91;;;19.49;100.00
6859;BME280;3468;42.824;23.240;2023-06-14T17:38:14;69307.69;;;19.43;100.00
6859;BME280;3468;42.824;23.240;2023-06-14T17:40:41;69316.22;;;19.41;100.00
6859;BME280;3468;42.824;23.240;2023-06-14T17:43:08;69293.94;;;19.40;100.00
6859;BME280;3468;42.824;23.240;2023-06-14T17:45:35;69328.47;;;19.41;100.00
6859;BME280;3468;42.824;23.240;2023-06-14T17:48:02;69324.69;;;19.35;100.00
6859;BME280;3468;42.824;23.240;2023-06-14T17:50:29;69273.72;;;19.27;100.00
6859;BME280;3468;42.824;23.240;2023-06-14T17:52:56;69300.59;;;19.28;100.00
6859;BME280;3468;42.824;23.240;2023-06-14T17:55:25;69288.00;;;19.26;100.00
6859;BME280;3468;42.824;23.240;2023-06-14T17:57:52;69272.44;;;19.17;100.00
6859;BME280;3468;42.824;23.240;2023-06-14T18:00:19;69297.03;;;19.20;100.00
6859;BME280;3468;42.824;23.240;2023-06-14T18:02:46;69290.19;;;19.19;100.00
6859;BME280;3468;42.824;23.240;2023-06-14T18:05:14;69266.84;;;19.25;100.00
6859;BME280;3468;42.824;23.240;2023-06-14T18:07:40;69293.06;;;19.21;100.00
6859;BME280;3468;42.824;23.240;2023-06-14T18:10:07;69317.34;;;19.22;100.00
6859;BME280;3468;42.824;23.240;2023-06-14T18:12:36;69246.47;;;18.99;100.00
6859;BME280;3468;42.824;23.240;2023-06-14T18:15:04;69280.56;;;19.08;100.00
6859;BME280;3468;42.824;23.240;2023-06-14T18:17:31;69312.81;;;19.43;100.00
6859;BME280;3468;42.824;23.240;2023-06-14T18:19:58;69319.94;;;19.42;100.00
6859;BME280;3468;42.824;23.240;2023-06-14T18:22:26;69319.13;;;19.44;100.00
6859;BME280;3468;42.824;23.240;2023-06-14T18:24:52;69259.88;;;19.35;100.00
6859;BME280;3468;42.824;23.240;2023-06-14T18:27:19;69326.59;;;19.30;100.00
6859;BME280;3468;42.824;23.240;2023-06-14T18:29:47;69306.81;;;19.24;100.00
6859;BME280;3468;42.824;23.240;2023-06-14T18:32:15;69255.88;;;19.16;100.00
6859;BME280;3468;42.824;23.240;2023-06-14T18:34:42;69287.50;;;19.30;100.00
6859;BME280;3468;42.824;23.240;2023-06-14T18:37:09;69290.72;;;19.35;100.00
6859;BME280;3468;42.824;23.240;2023-06-14T18:39:36;69286.13;;;19.35;100.00
6859;BME280;3468;42.824;23.240;2023-06-14T18:42:04;69321.28;;;19.37;100.00
6859;BME280;3468;42.824;23.240;2023-06-14T18:44:31;69311.59;;;19.37;100.00
6859;BME280;3468;42.824;23.240;2023-06-14T18:46:59;69310.63;;;19.30;100.00
6859;BME280;3468;42.824;23.240;2023-06-14T18:49:26;69282.88;;;19.26;100.00
6859;BME280;3468;42.824;23.240;2023-06-14T18:51:52;69294.03;;;19.29;100.00
6859;BME280;3468;42.824;23.240;2023-06-14T18:54:20;69288.56;;;19.26;100.00
6859;BME280;3468;42.824;23.240;2023-06-14T18:56:47;69289.94;;;19.21;100.00
6859;BME280;3468;42.824;23.240;2023-06-14T18:59:14;69295.16;;;19.10;100.00
6859;BME280;3468;42.824;23.240;2023-06-14T19:01:40;69265.63;;;18.85;100.00
6859;BME280;3468;42.824;23.240;2023-06-14T19:04:08;69276.63;;;18.94;100.00
6859;BME280;3468;42.824;23.240;2023-06-14T19:06:35;69265.25;;;18.98;100.00
6859;BME280;3468;42.824;23.240;2023-06-14T19:09:05;69237.59;;;18.98;100.00
6859;BME280;3468;42.824;23.240;2023-06-14T19:11:32;69207.63;;;18.62;100.00
6859;BME280;3468;42.824;23.240;2023-06-14T19:13:59;69076.72;;;18.42;100.00
6859;BME280;3468;42.824;23.240;2023-06-14T19:16:28;69227.22;;;18.74;100.00
6859;BME280;3468;42.824;23.240;2023-06-14T19:18:55;69253.06;;;18.67;100.00
6859;BME280;3468;42.824;23.240;2023-06-14T19:21:23;69208.78;;;18.63;100.00
6859;BME280;3468;42.824;23.240;2023-06-14T19:23:50;69221.22;;;18.56;100.00
6859;BME280;3468;42.824;23.240;2023-06-14T19:26:19;69220.03;;;18.70;100.00
6859;BME280;3468;42.824;23.240;2023-06-14T19:28:46;69236.09;;;18.75;100.00
6859;BME280;3468;42.824;23.240;2023-06-14T19:31:13;69247.84;;;18.78;100.00
6859;BME280;3468;42.824;23.240;2023-06-14T19:33:40;69232.44;;;18.78;100.00
6859;BME280;3468;42.824;23.240;2023-06-14T19:36:07;69233.72;;;18.88;100.00
6859;BME280;3468;42.824;23.240;2023-06-14T19:38:35;69247.22;;;18.93;100.00
6859;BME280;3468;42.824;23.240;2023-06-14T19:41:03;69290.94;;;18.98;100.00
6859;BME280;3468;42.824;23.240;2023-06-14T19:43:29;69279.19;;;18.94;100.00
6859;BME280;3468;42.824;23.240;2023-06-14T19:45:56;69248.69;;;18.97;100.00
6859;BME280;3468;42.824;23.240;2023-06-14T19:48:23;69277.78;;;18.95;100.00
6859;BME280;3468;42.824;23.240;2023-06-14T19:50:50;69252.59;;;18.91;100.00
6859;BME280;3468;42.824;23.240;2023-06-14T19:53:16;69266.03;;;18.92;100.00
6859;BME280;3468;42.824;23.240;2023-06-14T19:55:45;69237.72;;;18.87;100.00
6859;BME280;3468;42.824;23.240;2023-06-14T19:58:12;69265.69;;;18.89;100.00
6859;BME280;3468;42.824;23.240;2023-06-14T20:00:39;69283.94;;;18.87;100.00
6859;BME280;3468;42.824;23.240;2023-06-14T20:03:06;69264.34;;;18.95;100.00
6859;BME280;3468;42.824;23.240;2023-06-14T20:05:33;69289.22;;;18.96;100.00
6859;BME280;3468;42.824;23.240;2023-06-14T20:08:00;69250.44;;;18.98;100.00
6859;BME280;3468;42.824;23.240;2023-06-14T20:10:28;69276.72;;;18.99;100.00
6859;BME280;3468;42.824;23.240;2023-06-14T20:12:56;69252.78;;;19.00;100.00
6859;BME280;3468;42.824;23.240;2023-06-14T20:15:23;69263.06;;;19.00;100.00
6859;BME280;3468;42.824;23.240;2023-06-14T20:17:50;69295.59;;;19.02;100.00